Terminal Aerodrome Forecast
Issued by NWS

Home | Current Version | Previous Version | Text Only | Print | Product List | Glossary On
Versions: 1 2 3 4 5 6 7 8 9 10 11 12 13 14 15 16 17 18 19 20 21 22 23 24 25 26 27 28 29 30 31 32 33 34 35 36 37 38 39 40 41 42 43 44
000
FTAK31 PANC 211742
TAFADL
TAF
PADL 211742Z 2118/2218 36022G32KT P6SM VCSH SCT035 BKN080
      WS020/08045KT
      TEMPO 2118/2121 01028G40KT
     FM220000 02015G22KT P6SM SCT025 BKN050
     FM221200 01012G18KT P6SM SCT025 BKN040=

USA.gov is the U.S. government's official web portal to all federal, state and local government web resources and services.